sensor_id;sensor_type;location;lat;lon;timestamp;P1;durP1;ratioP1;P2;durP2;ratioP2
11008;SDS011;5557;51.670;7.788;2022-09-17T00:01:05;7.70;;;2.20;;
11008;SDS011;5557;51.670;7.788;2022-09-17T00:03:33;5.80;;;1.13;;
11008;SDS011;5557;51.670;7.788;2022-09-17T00:06:02;4.27;;;1.27;;
11008;SDS011;5557;51.670;7.788;2022-09-17T00:08:31;4.87;;;1.10;;
11008;SDS011;5557;51.670;7.788;2022-09-17T00:11:05;9.47;;;1.40;;
11008;SDS011;5557;51.670;7.788;2022-09-17T00:13:33;9.63;;;1.40;;
11008;SDS011;5557;51.670;7.788;2022-09-17T00:16:01;2.80;;;1.30;;
11008;SDS011;5557;51.670;7.788;2022-09-17T00:18:28;6.33;;;1.87;;
11008;SDS011;5557;51.670;7.788;2022-09-17T00:20:54;3.63;;;1.20;;
11008;SDS011;5557;51.670;7.788;2022-09-17T00:23:21;11.73;;;1.97;;
11008;SDS011;5557;51.670;7.788;2022-09-17T00:25:48;9.17;;;1.13;;
11008;SDS011;5557;51.670;7.788;2022-09-17T00:28:15;8.03;;;1.70;;
11008;SDS011;5557;51.670;7.788;2022-09-17T00:30:43;9.53;;;2.10;;
11008;SDS011;5557;51.670;7.788;2022-09-17T00:33:14;7.77;;;1.90;;
11008;SDS011;5557;51.670;7.788;2022-09-17T00:35:43;6.00;;;1.30;;
11008;SDS011;5557;51.670;7.788;2022-09-17T00:38:10;11.97;;;2.03;;
11008;SDS011;5557;51.670;7.788;2022-09-17T00:40:37;11.13;;;2.10;;
11008;SDS011;5557;51.670;7.788;2022-09-17T00:43:05;10.90;;;2.00;;
11008;SDS011;5557;51.670;7.788;2022-09-17T00:45:37;8.83;;;2.13;;
11008;SDS011;5557;51.670;7.788;2022-09-17T00:48:05;19.13;;;1.80;;
11008;SDS011;5557;51.670;7.788;2022-09-17T00:53:11;7.07;;;2.57;;
11008;SDS011;5557;51.670;7.788;2022-09-17T00:58:41;6.30;;;2.03;;
11008;SDS011;5557;51.670;7.788;2022-09-17T01:01:08;11.90;;;1.50;;
11008;SDS011;5557;51.670;7.788;2022-09-17T01:03:35;6.83;;;1.77;;
11008;SDS011;5557;51.670;7.788;2022-09-17T01:06:24;9.60;;;2.00;;
11008;SDS011;5557;51.670;7.788;2022-09-17T01:18:19;15.20;;;2.23;;
11008;SDS011;5557;51.670;7.788;2022-09-17T01:30:18;3.83;;;1.93;;
11008;SDS011;5557;51.670;7.788;2022-09-17T01:33:17;7.73;;;2.90;;
11008;SDS011;5557;51.670;7.788;2022-09-17T01:39:20;9.07;;;2.97;;
11008;SDS011;5557;51.670;7.788;2022-09-17T01:42:10;13.23;;;3.83;;
11008;SDS011;5557;51.670;7.788;2022-09-17T01:45:08;10.80;;;3.73;;
11008;SDS011;5557;51.670;7.788;2022-09-17T01:47:46;12.97;;;4.00;;
11008;SDS011;5557;51.670;7.788;2022-09-17T01:50:30;11.63;;;3.70;;
11008;SDS011;5557;51.670;7.788;2022-09-17T01:53:06;12.53;;;3.70;;
11008;SDS011;5557;51.670;7.788;2022-09-17T01:55:37;8.80;;;3.00;;
11008;SDS011;5557;51.670;7.788;2022-09-17T01:58:13;9.93;;;3.23;;
11008;SDS011;5557;51.670;7.788;2022-09-17T02:00:47;10.10;;;2.43;;
11008;SDS011;5557;51.670;7.788;2022-09-17T02:03:26;12.57;;;3.30;;
11008;SDS011;5557;51.670;7.788;2022-09-17T02:05:58;8.40;;;3.07;;
11008;SDS011;5557;51.670;7.788;2022-09-17T02:11:42;26.73;;;3.70;;
11008;SDS011;5557;51.670;7.788;2022-09-17T02:14:16;12.50;;;3.20;;
11008;SDS011;5557;51.670;7.788;2022-09-17T02:16:48;7.73;;;3.63;;
11008;SDS011;5557;51.670;7.788;2022-09-17T02:19:20;11.27;;;4.60;;
11008;SDS011;5557;51.670;7.788;2022-09-17T02:24:58;13.23;;;3.37;;
11008;SDS011;5557;51.670;7.788;2022-09-17T02:30:24;13.43;;;3.13;;
11008;SDS011;5557;51.670;7.788;2022-09-17T02:32:52;21.30;;;3.77;;
11008;SDS011;5557;51.670;7.788;2022-09-17T02:35:20;5.97;;;2.80;;
11008;SDS011;5557;51.670;7.788;2022-09-17T02:37:47;10.63;;;3.57;;
11008;SDS011;5557;51.670;7.788;2022-09-17T02:40:15;19.90;;;3.30;;
11008;SDS011;5557;51.670;7.788;2022-09-17T02:46:16;11.43;;;3.10;;
11008;SDS011;5557;51.670;7.788;2022-09-17T02:49:05;9.90;;;2.97;;
11008;SDS011;5557;51.670;7.788;2022-09-17T02:54:51;15.93;;;3.40;;
11008;SDS011;5557;51.670;7.788;2022-09-17T02:57:35;8.40;;;3.40;;
11008;SDS011;5557;51.670;7.788;2022-09-17T03:00:16;12.47;;;4.20;;
11008;SDS011;5557;51.670;7.788;2022-09-17T03:02:56;9.07;;;3.50;;
11008;SDS011;5557;51.670;7.788;2022-09-17T03:05:36;6.53;;;3.50;;
11008;SDS011;5557;51.670;7.788;2022-09-17T03:08:06;13.37;;;3.33;;
11008;SDS011;5557;51.670;7.788;2022-09-17T03:10:37;9.57;;;3.30;;
11008;SDS011;5557;51.670;7.788;2022-09-17T03:13:05;12.20;;;3.70;;
11008;SDS011;5557;51.670;7.788;2022-09-17T03:15:32;12.03;;;3.57;;
11008;SDS011;5557;51.670;7.788;2022-09-17T03:17:59;24.97;;;2.97;;
11008;SDS011;5557;51.670;7.788;2022-09-17T03:20:27;8.87;;;2.87;;
11008;SDS011;5557;51.670;7.788;2022-09-17T03:22:53;8.17;;;2.70;;
11008;SDS011;5557;51.670;7.788;2022-09-17T03:25:20;12.20;;;3.87;;
11008;SDS011;5557;51.670;7.788;2022-09-17T03:27:48;16.87;;;3.47;;
11008;SDS011;5557;51.670;7.788;2022-09-17T03:30:14;18.00;;;3.57;;
11008;SDS011;5557;51.670;7.788;2022-09-17T03:32:41;14.87;;;2.60;;
11008;SDS011;5557;51.670;7.788;2022-09-17T03:35:08;13.73;;;3.60;;
11008;SDS011;5557;51.670;7.788;2022-09-17T03:37:35;8.33;;;2.77;;
11008;SDS011;5557;51.670;7.788;2022-09-17T03:40:03;6.73;;;2.83;;
11008;SDS011;5557;51.670;7.788;2022-09-17T03:42:30;24.20;;;3.70;;
11008;SDS011;5557;51.670;7.788;2022-09-17T03:44:57;16.83;;;3.57;;
11008;SDS011;5557;51.670;7.788;2022-09-17T03:47:24;17.77;;;3.60;;
11008;SDS011;5557;51.670;7.788;2022-09-17T03:49:51;10.43;;;3.53;;
11008;SDS011;5557;51.670;7.788;2022-09-17T03:52:17;21.57;;;3.07;;
11008;SDS011;5557;51.670;7.788;2022-09-17T03:54:44;14.87;;;2.60;;
11008;SDS011;5557;51.670;7.788;2022-09-17T03:57:11;10.33;;;2.97;;
11008;SDS011;5557;51.670;7.788;2022-09-17T03:59:38;17.50;;;2.70;;
11008;SDS011;5557;51.670;7.788;2022-09-17T04:02:05;10.40;;;2.80;;
11008;SDS011;5557;51.670;7.788;2022-09-17T04:04:32;13.33;;;3.10;;
11008;SDS011;5557;51.670;7.788;2022-09-17T04:06:59;17.47;;;3.10;;
11008;SDS011;5557;51.670;7.788;2022-09-17T04:09:26;14.43;;;3.33;;
11008;SDS011;5557;51.670;7.788;2022-09-17T04:11:55;23.80;;;4.07;;
11008;SDS011;5557;51.670;7.788;2022-09-17T04:14:22;12.00;;;3.80;;
11008;SDS011;5557;51.670;7.788;2022-09-17T04:16:49;10.93;;;2.70;;
11008;SDS011;5557;51.670;7.788;2022-09-17T04:19:16;9.73;;;2.40;;
11008;SDS011;5557;51.670;7.788;2022-09-17T04:21:43;17.83;;;3.30;;
11008;SDS011;5557;51.670;7.788;2022-09-17T04:24:10;10.23;;;2.13;;
11008;SDS011;5557;51.670;7.788;2022-09-17T04:26:37;28.07;;;2.97;;
11008;SDS011;5557;51.670;7.788;2022-09-17T04:29:04;14.87;;;2.37;;
11008;SDS011;5557;51.670;7.788;2022-09-17T04:31:30;14.63;;;2.07;;
11008;SDS011;5557;51.670;7.788;2022-09-17T04:33:57;14.90;;;2.83;;
11008;SDS011;5557;51.670;7.788;2022-09-17T04:36:24;11.23;;;3.60;;
11008;SDS011;5557;51.670;7.788;2022-09-17T04:38:52;10.00;;;2.40;;
11008;SDS011;5557;51.670;7.788;2022-09-17T04:41:18;13.43;;;2.97;;
11008;SDS011;5557;51.670;7.788;2022-09-17T04:43:45;9.30;;;2.83;;
11008;SDS011;5557;51.670;7.788;2022-09-17T04:46:13;11.00;;;2.83;;
11008;SDS011;5557;51.670;7.788;2022-09-17T04:48:42;19.70;;;2.93;;
11008;SDS011;5557;51.670;7.788;2022-09-17T04:51:09;17.90;;;2.40;;
11008;SDS011;5557;51.670;7.788;2022-09-17T04:53:36;11.13;;;1.70;;
11008;SDS011;5557;51.670;7.788;2022-09-17T04:56:03;10.70;;;2.90;;
11008;SDS011;5557;51.670;7.788;2022-09-17T04:58:30;4.23;;;2.47;;
11008;SDS011;5557;51.670;7.788;2022-09-17T05:00:58;7.50;;;2.40;;
11008;SDS011;5557;51.670;7.788;2022-09-17T05:03:25;9.23;;;2.80;;
11008;SDS011;5557;51.670;7.788;2022-09-17T05:05:52;11.07;;;2.97;;
11008;SDS011;5557;51.670;7.788;2022-09-17T05:08:19;14.20;;;3.17;;
11008;SDS011;5557;51.670;7.788;2022-09-17T05:10:49;12.73;;;2.70;;
11008;SDS011;5557;51.670;7.788;2022-09-17T05:13:16;6.50;;;1.77;;
11008;SDS011;5557;51.670;7.788;2022-09-17T05:15:44;14.43;;;2.30;;
11008;SDS011;5557;51.670;7.788;2022-09-17T05:18:11;11.00;;;2.87;;
11008;SDS011;5557;51.670;7.788;2022-09-17T05:20:38;8.87;;;2.23;;
11008;SDS011;5557;51.670;7.788;2022-09-17T05:23:05;7.53;;;2.00;;
11008;SDS011;5557;51.670;7.788;2022-09-17T05:25:32;15.67;;;2.40;;
11008;SDS011;5557;51.670;7.788;2022-09-17T05:27:59;10.73;;;2.87;;
11008;SDS011;5557;51.670;7.788;2022-09-17T05:30:27;18.33;;;2.47;;
11008;SDS011;5557;51.670;7.788;2022-09-17T05:33:04;11.70;;;1.60;;
11008;SDS011;5557;51.670;7.788;2022-09-17T05:35:32;10.17;;;2.27;;
11008;SDS011;5557;51.670;7.788;2022-09-17T05:38:02;11.70;;;2.60;;
11008;SDS011;5557;51.670;7.788;2022-09-17T05:40:31;10.93;;;2.20;;
11008;SDS011;5557;51.670;7.788;2022-09-17T05:42:58;15.03;;;3.90;;
11008;SDS011;5557;51.670;7.788;2022-09-17T05:45:26;16.40;;;2.50;;
11008;SDS011;5557;51.670;7.788;2022-09-17T05:47:58;10.93;;;3.20;;
11008;SDS011;5557;51.670;7.788;2022-09-17T05:50:26;11.53;;;2.50;;
11008;SDS011;5557;51.670;7.788;2022-09-17T05:52:55;11.07;;;2.43;;
11008;SDS011;5557;51.670;7.788;2022-09-17T05:55:22;6.03;;;1.77;;
11008;SDS011;5557;51.670;7.788;2022-09-17T05:57:49;9.53;;;2.00;;
11008;SDS011;5557;51.670;7.788;2022-09-17T06:00:16;6.23;;;1.47;;
11008;SDS011;5557;51.670;7.788;2022-09-17T06:02:44;12.10;;;2.70;;
11008;SDS011;5557;51.670;7.788;2022-09-17T06:05:11;13.23;;;2.60;;
11008;SDS011;5557;51.670;7.788;2022-09-17T06:07:38;5.20;;;1.90;;
11008;SDS011;5557;51.670;7.788;2022-09-17T06:10:05;8.00;;;1.90;;
11008;SDS011;5557;51.670;7.788;2022-09-17T06:12:33;6.53;;;1.83;;
11008;SDS011;5557;51.670;7.788;2022-09-17T06:15:03;5.17;;;1.90;;
11008;SDS011;5557;51.670;7.788;2022-09-17T06:17:32;9.93;;;1.53;;
11008;SDS011;5557;51.670;7.788;2022-09-17T06:20:01;5.87;;;2.13;;
11008;SDS011;5557;51.670;7.788;2022-09-17T06:22:29;7.03;;;1.50;;
11008;SDS011;5557;51.670;7.788;2022-09-17T06:24:56;10.27;;;1.80;;
11008;SDS011;5557;51.670;7.788;2022-09-17T06:27:29;6.90;;;1.40;;
11008;SDS011;5557;51.670;7.788;2022-09-17T06:29:57;3.53;;;1.43;;
11008;SDS011;5557;51.670;7.788;2022-09-17T06:32:24;7.03;;;1.37;;
11008;SDS011;5557;51.670;7.788;2022-09-17T06:34:51;6.63;;;1.27;;
11008;SDS011;5557;51.670;7.788;2022-09-17T06:37:18;4.90;;;1.00;;
11008;SDS011;5557;51.670;7.788;2022-09-17T06:39:44;5.57;;;1.80;;
11008;SDS011;5557;51.670;7.788;2022-09-17T06:42:11;5.90;;;1.30;;
11008;SDS011;5557;51.670;7.788;2022-09-17T06:44:38;5.70;;;1.57;;
11008;SDS011;5557;51.670;7.788;2022-09-17T06:47:06;7.17;;;1.10;;
11008;SDS011;5557;51.670;7.788;2022-09-17T06:49:33;5.07;;;1.43;;
11008;SDS011;5557;51.670;7.788;2022-09-17T06:52:00;3.93;;;1.03;;
11008;SDS011;5557;51.670;7.788;2022-09-17T06:54:27;9.50;;;1.40;;
11008;SDS011;5557;51.670;7.788;2022-09-17T06:56:54;2.13;;;0.90;;
11008;SDS011;5557;51.670;7.788;2022-09-17T06:59:21;7.40;;;2.63;;
11008;SDS011;5557;51.670;7.788;2022-09-17T07:01:48;8.37;;;1.00;;
11008;SDS011;5557;51.670;7.788;2022-09-17T07:04:15;3.37;;;1.43;;
11008;SDS011;5557;51.670;7.788;2022-09-17T07:06:44;7.60;;;1.33;;
11008;SDS011;5557;51.670;7.788;2022-09-17T07:09:11;8.50;;;1.73;;
11008;SDS011;5557;51.670;7.788;2022-09-17T07:11:38;4.33;;;1.93;;
11008;SDS011;5557;51.670;7.788;2022-09-17T07:14:05;5.90;;;1.70;;
11008;SDS011;5557;51.670;7.788;2022-09-17T07:16:32;3.17;;;1.30;;
11008;SDS011;5557;51.670;7.788;2022-09-17T07:19:01;9.03;;;1.50;;
11008;SDS011;5557;51.670;7.788;2022-09-17T07:21:29;6.37;;;1.53;;
11008;SDS011;5557;51.670;7.788;2022-09-17T07:23:56;5.73;;;1.37;;
11008;SDS011;5557;51.670;7.788;2022-09-17T07:26:23;2.63;;;0.70;;
11008;SDS011;5557;51.670;7.788;2022-09-17T07:28:51;3.30;;;0.97;;
11008;SDS011;5557;51.670;7.788;2022-09-17T07:31:18;5.53;;;1.47;;
11008;SDS011;5557;51.670;7.788;2022-09-17T07:33:45;7.43;;;1.60;;
11008;SDS011;5557;51.670;7.788;2022-09-17T07:36:13;4.90;;;1.50;;
11008;SDS011;5557;51.670;7.788;2022-09-17T07:38:43;6.07;;;1.30;;
11008;SDS011;5557;51.670;7.788;2022-09-17T07:41:11;2.20;;;1.13;;
11008;SDS011;5557;51.670;7.788;2022-09-17T07:43:39;5.93;;;1.67;;
11008;SDS011;5557;51.670;7.788;2022-09-17T07:46:09;7.40;;;1.20;;
11008;SDS011;5557;51.670;7.788;2022-09-17T07:48:43;7.57;;;1.60;;
11008;SDS011;5557;51.670;7.788;2022-09-17T07:51:18;3.83;;;1.10;;
11008;SDS011;5557;51.670;7.788;2022-09-17T07:53:50;5.47;;;1.13;;
11008;SDS011;5557;51.670;7.788;2022-09-17T07:56:18;2.57;;;0.87;;
11008;SDS011;5557;51.670;7.788;2022-09-17T07:58:46;3.53;;;1.07;;
11008;SDS011;5557;51.670;7.788;2022-09-17T08:01:13;4.90;;;1.87;;
11008;SDS011;5557;51.670;7.788;2022-09-17T08:03:50;7.20;;;1.63;;
11008;SDS011;5557;51.670;7.788;2022-09-17T08:06:20;8.37;;;1.20;;
11008;SDS011;5557;51.670;7.788;2022-09-17T08:08:51;4.67;;;0.90;;
11008;SDS011;5557;51.670;7.788;2022-09-17T08:11:18;6.90;;;1.13;;
11008;SDS011;5557;51.670;7.788;2022-09-17T08:14:11;8.43;;;1.37;;
11008;SDS011;5557;51.670;7.788;2022-09-17T08:16:39;5.73;;;1.33;;
11008;SDS011;5557;51.670;7.788;2022-09-17T08:19:06;5.30;;;1.13;;
11008;SDS011;5557;51.670;7.788;2022-09-17T08:21:36;4.30;;;1.07;;
11008;SDS011;5557;51.670;7.788;2022-09-17T08:24:03;4.10;;;1.53;;
11008;SDS011;5557;51.670;7.788;2022-09-17T08:26:30;2.90;;;1.47;;
11008;SDS011;5557;51.670;7.788;2022-09-17T08:28:58;4.00;;;0.90;;
11008;SDS011;5557;51.670;7.788;2022-09-17T08:31:25;6.90;;;1.47;;
11008;SDS011;5557;51.670;7.788;2022-09-17T08:34:05;5.10;;;1.53;;
11008;SDS011;5557;51.670;7.788;2022-09-17T08:36:34;5.23;;;1.10;;
11008;SDS011;5557;51.670;7.788;2022-09-17T08:39:02;3.70;;;1.03;;
11008;SDS011;5557;51.670;7.788;2022-09-17T08:41:44;3.03;;;1.13;;
11008;SDS011;5557;51.670;7.788;2022-09-17T08:44:52;3.27;;;1.13;;
11008;SDS011;5557;51.670;7.788;2022-09-17T08:47:36;3.00;;;1.57;;
11008;SDS011;5557;51.670;7.788;2022-09-17T08:50:15;1.87;;;1.10;;
11008;SDS011;5557;51.670;7.788;2022-09-17T08:56:08;1.60;;;1.13;;
11008;SDS011;5557;51.670;7.788;2022-09-17T08:58:59;6.10;;;1.10;;
11008;SDS011;5557;51.670;7.788;2022-09-17T09:01:52;3.40;;;0.83;;
11008;SDS011;5557;51.670;7.788;2022-09-17T09:05:15;4.70;;;1.03;;
11008;SDS011;5557;51.670;7.788;2022-09-17T09:07:37;1.60;;;0.63;;
11008;SDS011;5557;51.670;7.788;2022-09-17T09:10:13;3.47;;;1.47;;
11008;SDS011;5557;51.670;7.788;2022-09-17T09:12:49;7.03;;;1.07;;
11008;SDS011;5557;51.670;7.788;2022-09-17T09:15:36;3.13;;;0.83;;
11008;SDS011;5557;51.670;7.788;2022-09-17T09:18:28;3.57;;;0.87;;
11008;SDS011;5557;51.670;7.788;2022-09-17T09:24:00;2.23;;;1.40;;
11008;SDS011;5557;51.670;7.788;2022-09-17T09:26:47;4.77;;;1.20;;
11008;SDS011;5557;51.670;7.788;2022-09-17T09:29:46;5.13;;;0.83;;
11008;SDS011;5557;51.670;7.788;2022-09-17T09:35:32;5.67;;;1.27;;
11008;SDS011;5557;51.670;7.788;2022-09-17T09:38:11;1.90;;;1.10;;
11008;SDS011;5557;51.670;7.788;2022-09-17T09:44:03;5.03;;;1.13;;
11008;SDS011;5557;51.670;7.788;2022-09-17T09:46:57;2.60;;;0.97;;
11008;SDS011;5557;51.670;7.788;2022-09-17T09:50:03;11.00;;;0.80;;
11008;SDS011;5557;51.670;7.788;2022-09-17T09:52:53;1.70;;;0.70;;
11008;SDS011;5557;51.670;7.788;2022-09-17T09:55:53;2.37;;;0.80;;
11008;SDS011;5557;51.670;7.788;2022-09-17T09:58:35;2.50;;;0.93;;
11008;SDS011;5557;51.670;7.788;2022-09-17T10:01:13;9.83;;;1.00;;
11008;SDS011;5557;51.670;7.788;2022-09-17T10:03:51;3.33;;;0.60;;
11008;SDS011;5557;51.670;7.788;2022-09-17T10:06:21;5.90;;;0.83;;
11008;SDS011;5557;51.670;7.788;2022-09-17T10:11:39;2.63;;;0.83;;
11008;SDS011;5557;51.670;7.788;2022-09-17T10:17:19;4.40;;;0.97;;
11008;SDS011;5557;51.670;7.788;2022-09-17T10:22:51;3.67;;;0.90;;
11008;SDS011;5557;51.670;7.788;2022-09-17T10:25:29;4.13;;;0.97;;
11008;SDS011;5557;51.670;7.788;2022-09-17T10:27:58;4.53;;;1.03;;
11008;SDS011;5557;51.670;7.788;2022-09-17T10:30:29;3.00;;;0.80;;
11008;SDS011;5557;51.670;7.788;2022-09-17T10:33:16;1.97;;;0.60;;
11008;SDS011;5557;51.670;7.788;2022-09-17T10:35:57;3.10;;;0.70;;
11008;SDS011;5557;51.670;7.788;2022-09-17T10:38:26;2.03;;;0.63;;
11008;SDS011;5557;51.670;7.788;2022-09-17T10:43:48;1.97;;;0.90;;
11008;SDS011;5557;51.670;7.788;2022-09-17T10:46:20;1.30;;;0.53;;
11008;SDS011;5557;51.670;7.788;2022-09-17T10:51:37;5.90;;;0.80;;
11008;SDS011;5557;51.670;7.788;2022-09-17T10:54:12;5.13;;;0.80;;
11008;SDS011;5557;51.670;7.788;2022-09-17T10:56:50;1.40;;;0.63;;
11008;SDS011;5557;51.670;7.788;2022-09-17T10:59:44;1.80;;;0.50;;
11008;SDS011;5557;51.670;7.788;2022-09-17T11:04:32;1.10;;;0.60;;
11008;SDS011;5557;51.670;7.788;2022-09-17T11:06:13;3.30;;;0.50;;
11008;SDS011;5557;51.670;7.788;2022-09-17T11:18:48;1.63;;;0.50;;
11008;SDS011;5557;51.670;7.788;2022-09-17T11:21:40;2.60;;;0.60;;
11008;SDS011;5557;51.670;7.788;2022-09-17T11:24:19;1.03;;;0.53;;
11008;SDS011;5557;51.670;7.788;2022-09-17T11:27:03;1.63;;;0.60;;
11008;SDS011;5557;51.670;7.788;2022-09-17T11:30:02;2.23;;;0.60;;
11008;SDS011;5557;51.670;7.788;2022-09-17T11:36:17;2.10;;;0.60;;
11008;SDS011;5557;51.670;7.788;2022-09-17T11:39:10;2.63;;;0.50;;
11008;SDS011;5557;51.670;7.788;2022-09-17T11:41:47;3.17;;;0.50;;
11008;SDS011;5557;51.670;7.788;2022-09-17T11:44:37;1.13;;;0.70;;
11008;SDS011;5557;51.670;7.788;2022-09-17T11:47:42;2.50;;;0.60;;
11008;SDS011;5557;51.670;7.788;2022-09-17T11:50:27;1.43;;;0.50;;
11008;SDS011;5557;51.670;7.788;2022-09-17T11:55:50;1.40;;;0.63;;
11008;SDS011;5557;51.670;7.788;2022-09-17T12:01:38;1.50;;;0.60;;
11008;SDS011;5557;51.670;7.788;2022-09-17T12:04:23;2.27;;;0.60;;
11008;SDS011;5557;51.670;7.788;2022-09-17T12:07:01;1.70;;;0.50;;
11008;SDS011;5557;51.670;7.788;2022-09-17T12:09:48;2.90;;;0.60;;
11008;SDS011;5557;51.670;7.788;2022-09-17T12:12:23;4.70;;;0.60;;
11008;SDS011;5557;51.670;7.788;2022-09-17T12:15:13;1.30;;;0.77;;
11008;SDS011;5557;51.670;7.788;2022-09-17T12:17:54;2.03;;;0.87;;
11008;SDS011;5557;51.670;7.788;2022-09-17T12:20:58;2.37;;;0.80;;
11008;SDS011;5557;51.670;7.788;2022-09-17T12:23:30;3.23;;;0.80;;
11008;SDS011;5557;51.670;7.788;2022-09-17T12:26:12;0.90;;;0.57;;
11008;SDS011;5557;51.670;7.788;2022-09-17T12:29:18;3.23;;;0.60;;
11008;SDS011;5557;51.670;7.788;2022-09-17T12:32:27;1.50;;;0.60;;
11008;SDS011;5557;51.670;7.788;2022-09-17T12:42:54;2.50;;;0.87;;
11008;SDS011;5557;51.670;7.788;2022-09-17T12:56:16;1.20;;;0.80;;
11008;SDS011;5557;51.670;7.788;2022-09-17T12:59:06;1.67;;;0.50;;
11008;SDS011;5557;51.670;7.788;2022-09-17T13:02:16;1.50;;;0.60;;
11008;SDS011;5557;51.670;7.788;2022-09-17T13:05:20;1.93;;;1.03;;
11008;SDS011;5557;51.670;7.788;2022-09-17T13:12:22;6.37;;;0.70;;
11008;SDS011;5557;51.670;7.788;2022-09-17T13:23:51;7.07;;;1.10;;
11008;SDS011;5557;51.670;7.788;2022-09-17T13:26:21;2.50;;;0.90;;
11008;SDS011;5557;51.670;7.788;2022-09-17T13:29:00;2.70;;;1.00;;
11008;SDS011;5557;51.670;7.788;2022-09-17T13:34:29;7.67;;;1.07;;
11008;SDS011;5557;51.670;7.788;2022-09-17T13:36:57;5.53;;;1.03;;
11008;SDS011;5557;51.670;7.788;2022-09-17T13:39:36;4.07;;;1.47;;
11008;SDS011;5557;51.670;7.788;2022-09-17T13:42:07;1.70;;;1.10;;
11008;SDS011;5557;51.670;7.788;2022-09-17T13:44:37;1.30;;;0.70;;
11008;SDS011;5557;51.670;7.788;2022-09-17T13:47:12;5.50;;;1.03;;
11008;SDS011;5557;51.670;7.788;2022-09-17T13:49:50;2.10;;;0.77;;
11008;SDS011;5557;51.670;7.788;2022-09-17T13:52:54;1.13;;;0.83;;
11008;SDS011;5557;51.670;7.788;2022-09-17T13:58:24;2.60;;;0.87;;
11008;SDS011;5557;51.670;7.788;2022-09-17T14:01:11;1.67;;;0.50;;
11008;SDS011;5557;51.670;7.788;2022-09-17T14:21:28;3.67;;;0.60;;
11008;SDS011;5557;51.670;7.788;2022-09-17T14:23:58;4.10;;;0.50;;
11008;SDS011;5557;51.670;7.788;2022-09-17T14:26:30;2.20;;;0.60;;
11008;SDS011;5557;51.670;7.788;2022-09-17T14:29:21;4.23;;;0.80;;
11008;SDS011;5557;51.670;7.788;2022-09-17T14:32:36;2.33;;;1.00;;
11008;SDS011;5557;51.670;7.788;2022-09-17T14:38:31;4.60;;;1.13;;
11008;SDS011;5557;51.670;7.788;2022-09-17T14:41:23;2.70;;;0.60;;
11008;SDS011;5557;51.670;7.788;2022-09-17T14:44:02;2.47;;;0.90;;
11008;SDS011;5557;51.670;7.788;2022-09-17T14:46:37;1.10;;;0.60;;
11008;SDS011;5557;51.670;7.788;2022-09-17T14:49:23;1.50;;;0.50;;
11008;SDS011;5557;51.670;7.788;2022-09-17T14:51:56;1.70;;;1.10;;
11008;SDS011;5557;51.670;7.788;2022-09-17T14:54:27;1.97;;;0.80;;
11008;SDS011;5557;51.670;7.788;2022-09-17T14:57:17;1.83;;;0.77;;
11008;SDS011;5557;51.670;7.788;2022-09-17T14:59:55;2.33;;;1.10;;
11008;SDS011;5557;51.670;7.788;2022-09-17T15:05:26;2.03;;;0.70;;
11008;SDS011;5557;51.670;7.788;2022-09-17T15:08:06;1.77;;;0.67;;
11008;SDS011;5557;51.670;7.788;2022-09-17T15:10:59;0.90;;;0.60;;
11008;SDS011;5557;51.670;7.788;2022-09-17T15:13:40;1.50;;;0.73;;
11008;SDS011;5557;51.670;7.788;2022-09-17T15:19:04;3.80;;;0.70;;
11008;SDS011;5557;51.670;7.788;2022-09-17T15:25:03;1.00;;;0.50;;
11008;SDS011;5557;51.670;7.788;2022-09-17T15:27:18;1.80;;;0.70;;
11008;SDS011;5557;51.670;7.788;2022-09-17T15:29:56;1.60;;;0.50;;
11008;SDS011;5557;51.670;7.788;2022-09-17T15:32:31;4.90;;;0.90;;
11008;SDS011;5557;51.670;7.788;2022-09-17T15:38:00;4.13;;;0.80;;
11008;SDS011;5557;51.670;7.788;2022-09-17T15:40:47;7.93;;;1.23;;
11008;SDS011;5557;51.670;7.788;2022-09-17T15:46:20;2.10;;;0.90;;
11008;SDS011;5557;51.670;7.788;2022-09-17T15:49:00;2.17;;;0.90;;
11008;SDS011;5557;51.670;7.788;2022-09-17T15:51:28;3.97;;;0.70;;
11008;SDS011;5557;51.670;7.788;2022-09-17T15:54:01;2.60;;;1.17;;
11008;SDS011;5557;51.670;7.788;2022-09-17T15:56:35;4.97;;;1.00;;
11008;SDS011;5557;51.670;7.788;2022-09-17T15:59:20;2.60;;;0.80;;
11008;SDS011;5557;51.670;7.788;2022-09-17T16:01:59;6.50;;;1.00;;
11008;SDS011;5557;51.670;7.788;2022-09-17T16:04:31;1.20;;;0.80;;
11008;SDS011;5557;51.670;7.788;2022-09-17T16:09:54;3.07;;;0.57;;
11008;SDS011;5557;51.670;7.788;2022-09-17T16:12:25;2.70;;;0.90;;
11008;SDS011;5557;51.670;7.788;2022-09-17T16:14:55;1.10;;;0.63;;
11008;SDS011;5557;51.670;7.788;2022-09-17T16:20:21;4.07;;;1.37;;
11008;SDS011;5557;51.670;7.788;2022-09-17T16:22:50;2.07;;;0.63;;
11008;SDS011;5557;51.670;7.788;2022-09-17T16:25:19;6.10;;;0.90;;
11008;SDS011;5557;51.670;7.788;2022-09-17T16:27:50;2.63;;;0.70;;
11008;SDS011;5557;51.670;7.788;2022-09-17T16:30:35;7.53;;;0.90;;
11008;SDS011;5557;51.670;7.788;2022-09-17T16:33:02;3.00;;;1.20;;
11008;SDS011;5557;51.670;7.788;2022-09-17T16:35:32;5.43;;;0.80;;
11008;SDS011;5557;51.670;7.788;2022-09-17T16:37:59;3.83;;;1.20;;
11008;SDS011;5557;51.670;7.788;2022-09-17T16:40:26;3.50;;;1.00;;
11008;SDS011;5557;51.670;7.788;2022-09-17T16:42:53;6.70;;;0.90;;
11008;SDS011;5557;51.670;7.788;2022-09-17T16:45:20;4.13;;;1.40;;
11008;SDS011;5557;51.670;7.788;2022-09-17T16:47:54;2.80;;;0.73;;
11008;SDS011;5557;51.670;7.788;2022-09-17T16:50:21;1.20;;;0.77;;
11008;SDS011;5557;51.670;7.788;2022-09-17T16:52:48;5.87;;;1.20;;
11008;SDS011;5557;51.670;7.788;2022-09-17T16:55:15;4.97;;;1.33;;
11008;SDS011;5557;51.670;7.788;2022-09-17T16:57:43;3.50;;;1.00;;
11008;SDS011;5557;51.670;7.788;2022-09-17T17:00:11;2.33;;;0.83;;
11008;SDS011;5557;51.670;7.788;2022-09-17T17:02:42;3.77;;;1.03;;
11008;SDS011;5557;51.670;7.788;2022-09-17T17:05:10;6.20;;;1.20;;
11008;SDS011;5557;51.670;7.788;2022-09-17T17:07:37;4.50;;;1.40;;
11008;SDS011;5557;51.670;7.788;2022-09-17T17:10:04;5.03;;;0.80;;
11008;SDS011;5557;51.670;7.788;2022-09-17T17:12:34;2.90;;;1.00;;
11008;SDS011;5557;51.670;7.788;2022-09-17T17:15:02;3.30;;;1.00;;
11008;SDS011;5557;51.670;7.788;2022-09-17T17:17:31;4.27;;;1.33;;
11008;SDS011;5557;51.670;7.788;2022-09-17T17:20:01;7.17;;;1.57;;
11008;SDS011;5557;51.670;7.788;2022-09-17T17:22:33;1.77;;;0.70;;
11008;SDS011;5557;51.670;7.788;2022-09-17T17:25:03;7.57;;;1.23;;
11008;SDS011;5557;51.670;7.788;2022-09-17T17:27:31;1.13;;;0.73;;
11008;SDS011;5557;51.670;7.788;2022-09-17T17:29:58;2.80;;;1.07;;
11008;SDS011;5557;51.670;7.788;2022-09-17T17:32:29;5.90;;;0.80;;
11008;SDS011;5557;51.670;7.788;2022-09-17T17:34:57;2.60;;;1.20;;
11008;SDS011;5557;51.670;7.788;2022-09-17T17:37:24;4.90;;;0.70;;
11008;SDS011;5557;51.670;7.788;2022-09-17T17:39:52;4.93;;;0.90;;
11008;SDS011;5557;51.670;7.788;2022-09-17T17:42:20;4.83;;;1.33;;
11008;SDS011;5557;51.670;7.788;2022-09-17T17:44:47;2.60;;;0.80;;
11008;SDS011;5557;51.670;7.788;2022-09-17T17:47:15;2.20;;;0.83;;
11008;SDS011;5557;51.670;7.788;2022-09-17T17:49:42;5.03;;;1.20;;
11008;SDS011;5557;51.670;7.788;2022-09-17T17:52:10;3.37;;;1.03;;
11008;SDS011;5557;51.670;7.788;2022-09-17T17:54:37;4.10;;;0.70;;
11008;SDS011;5557;51.670;7.788;2022-09-17T17:57:04;3.03;;;0.70;;
11008;SDS011;5557;51.670;7.788;2022-09-17T17:59:31;1.80;;;0.90;;
11008;SDS011;5557;51.670;7.788;2022-09-17T18:01:58;3.00;;;0.80;;
11008;SDS011;5557;51.670;7.788;2022-09-17T18:04:27;2.50;;;1.00;;
11008;SDS011;5557;51.670;7.788;2022-09-17T18:06:54;4.20;;;0.87;;
11008;SDS011;5557;51.670;7.788;2022-09-17T18:09:21;1.73;;;1.10;;
11008;SDS011;5557;51.670;7.788;2022-09-17T18:11:49;4.03;;;1.10;;
11008;SDS011;5557;51.670;7.788;2022-09-17T18:14:16;1.10;;;1.00;;
11008;SDS011;5557;51.670;7.788;2022-09-17T18:16:43;2.63;;;1.10;;
11008;SDS011;5557;51.670;7.788;2022-09-17T18:19:10;3.40;;;1.83;;
11008;SDS011;5557;51.670;7.788;2022-09-17T18:21:37;2.87;;;1.20;;
11008;SDS011;5557;51.670;7.788;2022-09-17T18:24:04;4.97;;;1.07;;
11008;SDS011;5557;51.670;7.788;2022-09-17T18:26:31;5.00;;;1.03;;